sensor_id;sensor_type;location;lat;lon;timestamp;pressure;altitude;pressure_sealevel;temperature;humidity
61537;BME280;48695;53.480;-6.300;2023-08-12T00:00:49;100089.03;;;20.11;55.60
61537;BME280;48695;53.480;-6.300;2023-08-12T00:03:15;100085.53;;;20.10;55.84
61537;BME280;48695;53.480;-6.300;2023-08-12T00:05:40;100069.94;;;20.06;55.54
61537;BME280;48695;53.480;-6.300;2023-08-12T00:08:06;100083.84;;;20.09;55.75
61537;BME280;48695;53.480;-6.300;2023-08-12T00:10:31;100077.56;;;20.10;55.79
61537;BME280;48695;53.480;-6.300;2023-08-12T00:12:57;100078.41;;;20.11;55.66
61537;BME280;48695;53.480;-6.300;2023-08-12T00:15:22;100074.06;;;20.10;55.67
61537;BME280;48695;53.480;-6.300;2023-08-12T00:17:48;100074.06;;;20.10;55.87
61537;BME280;48695;53.480;-6.300;2023-08-12T00:20:13;100061.03;;;20.07;56.16
61537;BME280;48695;53.480;-6.300;2023-08-12T00:22:39;100054.50;;;20.00;56.10
61537;BME280;48695;53.480;-6.300;2023-08-12T00:25:05;100059.34;;;20.06;55.71
61537;BME280;48695;53.480;-6.300;2023-08-12T00:27:31;100062.00;;;20.06;56.26
61537;BME280;48695;53.480;-6.300;2023-08-12T00:29:57;100060.09;;;20.08;56.11
61537;BME280;48695;53.480;-6.300;2023-08-12T00:32:22;100045.13;;;20.07;55.96
61537;BME280;48695;53.480;-6.300;2023-08-12T00:34:48;100042.47;;;20.07;56.36
61537;BME280;48695;53.480;-6.300;2023-08-12T00:37:13;100036.25;;;20.08;55.99
61537;BME280;48695;53.480;-6.300;2023-08-12T00:39:38;100029.69;;;20.01;56.17
61537;BME280;48695;53.480;-6.300;2023-08-12T00:42:04;100036.25;;;20.08;56.00
61537;BME280;48695;53.480;-6.300;2023-08-12T00:44:29;100034.53;;;20.07;56.36
61537;BME280;48695;53.480;-6.300;2023-08-12T00:46:55;100034.53;;;20.07;56.33
61537;BME280;48695;53.480;-6.300;2023-08-12T00:49:22;100029.22;;;20.07;56.70
61537;BME280;48695;53.480;-6.300;2023-08-12T00:51:51;100028.28;;;20.08;56.14
61537;BME280;48695;53.480;-6.300;2023-08-12T00:54:19;100025.72;;;20.06;56.64
61537;BME280;48695;53.480;-6.300;2023-08-12T00:56:45;100025.84;;;20.05;56.14
61537;BME280;48695;53.480;-6.300;2023-08-12T00:59:11;100040.91;;;20.04;56.63
61537;BME280;48695;53.480;-6.300;2023-08-12T01:01:39;100024.16;;;20.04;56.82
61537;BME280;48695;53.480;-6.300;2023-08-12T01:04:06;100015.47;;;20.02;56.70
61537;BME280;48695;53.480;-6.300;2023-08-12T01:06:32;100012.09;;;20.00;56.59
61537;BME280;48695;53.480;-6.300;2023-08-12T01:08:58;100008.47;;;20.01;56.79
61537;BME280;48695;53.480;-6.300;2023-08-12T01:11:28;100020.03;;;20.00;56.88
61537;BME280;48695;53.480;-6.300;2023-08-12T01:14:14;100006.56;;;20.03;56.20
61537;BME280;48695;53.480;-6.300;2023-08-12T01:16:46;100003.19;;;20.01;56.17
61537;BME280;48695;53.480;-6.300;2023-08-12T01:19:39;99990.69;;;20.03;56.12
61537;BME280;48695;53.480;-6.300;2023-08-12T01:22:08;99990.88;;;20.00;57.08
61537;BME280;48695;53.480;-6.300;2023-08-12T01:24:44;99993.41;;;20.01;56.44
61537;BME280;48695;53.480;-6.300;2023-08-12T01:27:11;99994.50;;;19.99;56.85
61537;BME280;48695;53.480;-6.300;2023-08-12T01:29:39;99991.84;;;19.99;56.70
61537;BME280;48695;53.480;-6.300;2023-08-12T01:32:23;99988.25;;;20.00;56.85
61537;BME280;48695;53.480;-6.300;2023-08-12T01:35:26;99983.66;;;20.02;55.91
61537;BME280;48695;53.480;-6.300;2023-08-12T01:37:54;99970.66;;;19.99;57.29
61537;BME280;48695;53.480;-6.300;2023-08-12T01:40:22;99975.09;;;19.98;57.51
61537;BME280;48695;53.480;-6.300;2023-08-12T01:42:50;99977.75;;;19.98;56.91
61537;BME280;48695;53.480;-6.300;2023-08-12T01:45:17;99975.00;;;20.00;57.41
61537;BME280;48695;53.480;-6.300;2023-08-12T01:47:43;99971.28;;;20.02;55.71
61537;BME280;48695;53.480;-6.300;2023-08-12T01:50:09;99973.31;;;19.99;57.56
61537;BME280;48695;53.480;-6.300;2023-08-12T01:52:35;99969.91;;;19.96;57.70
61537;BME280;48695;53.480;-6.300;2023-08-12T01:55:00;99962.06;;;19.95;57.43
61537;BME280;48695;53.480;-6.300;2023-08-12T01:57:26;99974.34;;;19.96;57.96
61537;BME280;48695;53.480;-6.300;2023-08-12T01:59:51;99960.25;;;19.95;57.80
61537;BME280;48695;53.480;-6.300;2023-08-12T02:02:17;99955.09;;;19.94;58.08
61537;BME280;48695;53.480;-6.300;2023-08-12T02:04:42;99957.63;;;19.95;58.25
61537;BME280;48695;53.480;-6.300;2023-08-12T02:07:09;99955.72;;;19.98;58.20
61537;BME280;48695;53.480;-6.300;2023-08-12T02:09:34;99953.78;;;20.00;58.24
61537;BME280;48695;53.480;-6.300;2023-08-12T02:12:00;99948.47;;;20.00;58.21
61537;BME280;48695;53.480;-6.300;2023-08-12T02:14:25;99926.91;;;19.93;57.95
61537;BME280;48695;53.480;-6.300;2023-08-12T02:16:51;99929.94;;;20.00;58.32
61537;BME280;48695;53.480;-6.300;2023-08-12T02:19:16;99931.75;;;19.99;58.34
61537;BME280;48695;53.480;-6.300;2023-08-12T02:21:42;99923.66;;;20.01;58.34
61537;BME280;48695;53.480;-6.300;2023-08-12T02:24:08;99931.63;;;20.01;58.87
61537;BME280;48695;53.480;-6.300;2023-08-12T02:26:34;99923.66;;;20.01;58.92
61537;BME280;48695;53.480;-6.300;2023-08-12T02:28:59;99925.59;;;19.99;58.69
61537;BME280;48695;53.480;-6.300;2023-08-12T02:31:25;99908.56;;;19.90;58.78
61537;BME280;48695;53.480;-6.300;2023-08-12T02:33:50;99924.75;;;19.98;58.64
61537;BME280;48695;53.480;-6.300;2023-08-12T02:36:16;99908.44;;;19.91;58.74
61537;BME280;48695;53.480;-6.300;2023-08-12T02:38:41;99912.06;;;19.90;58.79
61537;BME280;48695;53.480;-6.300;2023-08-12T02:41:07;99913.31;;;19.98;58.64
61537;BME280;48695;53.480;-6.300;2023-08-12T02:43:32;99912.56;;;19.95;58.81
61537;BME280;48695;53.480;-6.300;2023-08-12T02:45:57;99915.00;;;19.99;59.19
61537;BME280;48695;53.480;-6.300;2023-08-12T02:48:23;99911.38;;;20.00;59.08
61537;BME280;48695;53.480;-6.300;2023-08-12T02:50:48;99904.41;;;19.99;59.14
61537;BME280;48695;53.480;-6.300;2023-08-12T02:53:15;99903.31;;;20.01;59.21
61537;BME280;48695;53.480;-6.300;2023-08-12T02:55:40;99897.06;;;20.02;59.39
61537;BME280;48695;53.480;-6.300;2023-08-12T02:58:06;99898.84;;;20.02;59.17
61537;BME280;48695;53.480;-6.300;2023-08-12T03:00:31;99890.06;;;20.01;59.38
61537;BME280;48695;53.480;-6.300;2023-08-12T03:02:57;99875.97;;;20.01;59.57
61537;BME280;48695;53.480;-6.300;2023-08-12T03:05:22;99866.88;;;19.92;59.12
61537;BME280;48695;53.480;-6.300;2023-08-12T03:07:48;99890.91;;;20.02;59.74
61537;BME280;48695;53.480;-6.300;2023-08-12T03:10:14;99870.66;;;20.01;60.01
61537;BME280;48695;53.480;-6.300;2023-08-12T03:12:39;99868.75;;;20.03;60.16
61537;BME280;48695;53.480;-6.300;2023-08-12T03:15:06;99863.69;;;20.00;59.94
61537;BME280;48695;53.480;-6.300;2023-08-12T03:17:32;99856.44;;;20.02;59.91
61537;BME280;48695;53.480;-6.300;2023-08-12T03:19:58;99872.34;;;20.02;59.61
61537;BME280;48695;53.480;-6.300;2023-08-12T03:22:29;99859.84;;;20.04;59.27
61537;BME280;48695;53.480;-6.300;2023-08-12T03:24:55;99857.31;;;20.02;59.75
61537;BME280;48695;53.480;-6.300;2023-08-12T03:27:20;99852.91;;;19.90;60.09
61537;BME280;48695;53.480;-6.300;2023-08-12T03:29:45;99864.41;;;20.02;60.15
61537;BME280;48695;53.480;-6.300;2023-08-12T03:32:11;99855.00;;;19.98;61.15
61537;BME280;48695;53.480;-6.300;2023-08-12T03:34:37;99848.00;;;19.96;60.28
61537;BME280;48695;53.480;-6.300;2023-08-12T03:37:02;99861.38;;;19.95;60.55
61537;BME280;48695;53.480;-6.300;2023-08-12T03:39:28;99848.25;;;19.93;61.00
61537;BME280;48695;53.480;-6.300;2023-08-12T03:41:53;99850.16;;;19.91;61.08
61537;BME280;48695;53.480;-6.300;2023-08-12T03:44:19;99847.75;;;19.88;61.03
61537;BME280;48695;53.480;-6.300;2023-08-12T03:46:44;99852.28;;;19.86;61.69
61537;BME280;48695;53.480;-6.300;2023-08-12T03:49:10;99847.97;;;19.85;61.52
61537;BME280;48695;53.480;-6.300;2023-08-12T03:51:35;99850.88;;;19.82;61.47
61537;BME280;48695;53.480;-6.300;2023-08-12T03:54:00;99848.44;;;19.79;61.75
61537;BME280;48695;53.480;-6.300;2023-08-12T03:56:26;99836.25;;;19.77;62.15
61537;BME280;48695;53.480;-6.300;2023-08-12T03:58:51;99832.88;;;19.75;62.13
61537;BME280;48695;53.480;-6.300;2023-08-12T04:01:17;99833.97;;;19.72;61.94
61537;BME280;48695;53.480;-6.300;2023-08-12T04:03:43;99835.88;;;19.70;62.01
61537;BME280;48695;53.480;-6.300;2023-08-12T04:06:08;99839.47;;;19.69;62.22
61537;BME280;48695;53.480;-6.300;2023-08-12T04:08:34;99839.47;;;19.69;62.12
61537;BME280;48695;53.480;-6.300;2023-08-12T04:10:59;99829.72;;;19.69;61.78
61537;BME280;48695;53.480;-6.300;2023-08-12T04:13:25;99832.50;;;19.68;61.74
61537;BME280;48695;53.480;-6.300;2023-08-12T04:15:51;99819.97;;;19.70;61.27
61537;BME280;48695;53.480;-6.300;2023-08-12T04:18:18;99818.75;;;19.63;61.91
61537;BME280;48695;53.480;-6.300;2023-08-12T04:20:48;99816.34;;;19.71;61.60
61537;BME280;48695;53.480;-6.300;2023-08-12T04:23:14;99804.88;;;19.59;62.52
61537;BME280;48695;53.480;-6.300;2023-08-12T04:25:39;99817.56;;;19.67;61.78
61537;BME280;48695;53.480;-6.300;2023-08-12T04:28:05;99795.56;;;19.54;62.40
61537;BME280;48695;53.480;-6.300;2023-08-12T04:30:30;99813.19;;;19.66;61.88
61537;BME280;48695;53.480;-6.300;2023-08-12T04:32:56;99816.81;;;19.65;62.51
61537;BME280;48695;53.480;-6.300;2023-08-12T04:35:21;99809.84;;;19.64;62.41
61537;BME280;48695;53.480;-6.300;2023-08-12T04:37:47;99812.50;;;19.64;62.02
61537;BME280;48695;53.480;-6.300;2023-08-12T04:40:12;99809.84;;;19.64;62.30
61537;BME280;48695;53.480;-6.300;2023-08-12T04:42:37;99813.44;;;19.63;62.16
61537;BME280;48695;53.480;-6.300;2023-08-12T04:45:03;99815.13;;;19.64;62.23
61537;BME280;48695;53.480;-6.300;2023-08-12T04:47:29;99815.13;;;19.64;62.03
61537;BME280;48695;53.480;-6.300;2023-08-12T04:49:54;99811.78;;;19.62;62.35
61537;BME280;48695;53.480;-6.300;2023-08-12T04:52:20;99813.44;;;19.63;62.33
61537;BME280;48695;53.480;-6.300;2023-08-12T04:54:46;99813.44;;;19.63;62.11
61537;BME280;48695;53.480;-6.300;2023-08-12T04:57:11;99809.84;;;19.64;62.41
61537;BME280;48695;53.480;-6.300;2023-08-12T04:59:37;99819.59;;;19.63;62.30
61537;BME280;48695;53.480;-6.300;2023-08-12T05:02:02;99815.25;;;19.62;62.21
61537;BME280;48695;53.480;-6.300;2023-08-12T05:04:28;99812.59;;;19.62;62.02
61537;BME280;48695;53.480;-6.300;2023-08-12T05:06:53;99802.22;;;19.59;62.26
61537;BME280;48695;53.480;-6.300;2023-08-12T05:09:19;99810.06;;;19.61;62.08
61537;BME280;48695;53.480;-6.300;2023-08-12T05:11:44;99795.69;;;19.52;61.98
61537;BME280;48695;53.480;-6.300;2023-08-12T05:14:10;99815.25;;;19.62;62.09
61537;BME280;48695;53.480;-6.300;2023-08-12T05:16:35;99805.50;;;19.63;62.59
61537;BME280;48695;53.480;-6.300;2023-08-12T05:19:00;99806.16;;;19.54;61.85
61537;BME280;48695;53.480;-6.300;2023-08-12T05:21:26;99800.34;;;19.49;62.47
61537;BME280;48695;53.480;-6.300;2023-08-12T05:23:52;99807.97;;;19.53;62.74
61537;BME280;48695;53.480;-6.300;2023-08-12T05:26:17;99810.47;;;19.55;62.12
61537;BME280;48695;53.480;-6.300;2023-08-12T05:28:42;99808.81;;;19.54;62.06
61537;BME280;48695;53.480;-6.300;2023-08-12T05:31:08;99814.22;;;19.52;62.11
61537;BME280;48695;53.480;-6.300;2023-08-12T05:33:33;99810.72;;;19.52;62.22
61537;BME280;48695;53.480;-6.300;2023-08-12T05:35:59;99811.06;;;19.47;61.87
61537;BME280;48695;53.480;-6.300;2023-08-12T05:38:24;99807.34;;;19.50;62.35
61537;BME280;48695;53.480;-6.300;2023-08-12T05:40:49;99818.75;;;19.50;61.94
61537;BME280;48695;53.480;-6.300;2023-08-12T05:43:15;99808.16;;;19.50;62.16
61537;BME280;48695;53.480;-6.300;2023-08-12T05:45:40;99820.56;;;19.50;62.49
61537;BME280;48695;53.480;-6.300;2023-08-12T05:48:06;99817.91;;;19.50;62.46
61537;BME280;48695;53.480;-6.300;2023-08-12T05:50:31;99821.53;;;19.49;62.51
61537;BME280;48695;53.480;-6.300;2023-08-12T05:52:56;99818.03;;;19.48;62.83
61537;BME280;48695;53.480;-6.300;2023-08-12T05:55:22;99816.25;;;19.49;62.49
61537;BME280;48695;53.480;-6.300;2023-08-12T05:57:47;99833.81;;;19.50;62.57
61537;BME280;48695;53.480;-6.300;2023-08-12T06:00:13;99819.59;;;19.51;62.72
61537;BME280;48695;53.480;-6.300;2023-08-12T06:02:38;99829.97;;;19.54;62.16
61537;BME280;48695;53.480;-6.300;2023-08-12T06:05:04;99809.47;;;19.44;62.43
61537;BME280;48695;53.480;-6.300;2023-08-12T06:07:29;99816.88;;;19.52;62.39
61537;BME280;48695;53.480;-6.300;2023-08-12T06:09:55;99815.78;;;19.55;62.51
61537;BME280;48695;53.480;-6.300;2023-08-12T06:12:20;99828.06;;;19.56;62.16
61537;BME280;48695;53.480;-6.300;2023-08-12T06:14:46;99830.63;;;19.57;62.42
61537;BME280;48695;53.480;-6.300;2023-08-12T06:17:11;99831.25;;;19.61;62.62
61537;BME280;48695;53.480;-6.300;2023-08-12T06:19:36;99827.66;;;19.62;61.89
61537;BME280;48695;53.480;-6.300;2023-08-12T06:22:02;99832.84;;;19.63;62.68
61537;BME280;48695;53.480;-6.300;2023-08-12T06:24:28;99831.03;;;19.64;62.74
61537;BME280;48695;53.480;-6.300;2023-08-12T06:26:53;99827.19;;;19.68;62.67
61537;BME280;48695;53.480;-6.300;2023-08-12T06:29:19;99829.72;;;19.69;62.49
61537;BME280;48695;53.480;-6.300;2023-08-12T06:31:44;99826.94;;;19.71;62.55
61537;BME280;48695;53.480;-6.300;2023-08-12T06:34:10;99832.03;;;19.74;62.03
61537;BME280;48695;53.480;-6.300;2023-08-12T06:36:35;99819.00;;;19.71;62.19
61537;BME280;48695;53.480;-6.300;2023-08-12T06:39:00;99823.13;;;19.75;62.38
61537;BME280;48695;53.480;-6.300;2023-08-12T06:41:26;99825.66;;;19.77;62.33
61537;BME280;48695;53.480;-6.300;2023-08-12T06:43:51;99818.56;;;19.77;62.37
61537;BME280;48695;53.480;-6.300;2023-08-12T06:46:17;99819.28;;;19.79;62.37
61537;BME280;48695;53.480;-6.300;2023-08-12T06:48:42;99814.97;;;19.78;62.25
61537;BME280;48695;53.480;-6.300;2023-08-12T06:51:07;99816.75;;;19.78;62.08
61537;BME280;48695;53.480;-6.300;2023-08-12T06:53:36;99828.19;;;19.78;62.20
61537;BME280;48695;53.480;-6.300;2023-08-12T06:56:02;99835.19;;;19.79;62.58
61537;BME280;48695;53.480;-6.300;2023-08-12T06:58:28;99827.00;;;19.82;61.88
61537;BME280;48695;53.480;-6.300;2023-08-12T07:00:53;99820.81;;;19.70;62.82
61537;BME280;48695;53.480;-6.300;2023-08-12T07:03:19;99832.41;;;19.81;62.40
61537;BME280;48695;53.480;-6.300;2023-08-12T07:05:44;99840.00;;;19.85;62.65
61537;BME280;48695;53.480;-6.300;2023-08-12T07:08:10;99841.69;;;19.86;62.58
61537;BME280;48695;53.480;-6.300;2023-08-12T07:10:40;99840.50;;;19.90;62.21
61537;BME280;48695;53.480;-6.300;2023-08-12T07:13:05;99843.16;;;19.90;62.14
61537;BME280;48695;53.480;-6.300;2023-08-12T07:15:31;99837.38;;;19.85;62.83
61537;BME280;48695;53.480;-6.300;2023-08-12T07:17:56;99837.75;;;19.92;62.85
61537;BME280;48695;53.480;-6.300;2023-08-12T07:20:23;99848.00;;;19.96;62.83
61537;BME280;48695;53.480;-6.300;2023-08-12T07:22:49;99827.28;;;20.02;62.59
61537;BME280;48695;53.480;-6.300;2023-08-12T07:25:14;99840.09;;;20.08;62.86
61537;BME280;48695;53.480;-6.300;2023-08-12T07:27:40;99842.03;;;20.17;62.69
61537;BME280;48695;53.480;-6.300;2023-08-12T07:30:06;99836.38;;;20.21;62.45
61537;BME280;48695;53.480;-6.300;2023-08-12T07:32:33;99845.22;;;20.33;61.85
61537;BME280;48695;53.480;-6.300;2023-08-12T07:34:58;99847.28;;;20.41;61.89
61537;BME280;48695;53.480;-6.300;2023-08-12T07:37:23;99839.81;;;20.46;61.69
61537;BME280;48695;53.480;-6.300;2023-08-12T07:39:49;99850.81;;;20.53;61.79
61537;BME280;48695;53.480;-6.300;2023-08-12T07:42:14;99852.25;;;20.57;61.21
61537;BME280;48695;53.480;-6.300;2023-08-12T07:44:40;99858.78;;;20.64;61.12
61537;BME280;48695;53.480;-6.300;2023-08-12T07:47:05;99865.53;;;20.68;60.69
61537;BME280;48695;53.480;-6.300;2023-08-12T07:49:30;99862.78;;;20.69;61.92
61537;BME280;48695;53.480;-6.300;2023-08-12T07:51:56;99869.41;;;20.75;61.63
61537;BME280;48695;53.480;-6.300;2023-08-12T07:54:21;99863.25;;;20.75;61.44
61537;BME280;48695;53.480;-6.300;2023-08-12T07:56:46;99859.50;;;20.77;61.42
61537;BME280;48695;53.480;-6.300;2023-08-12T07:59:12;99871.09;;;20.76;61.27
61537;BME280;48695;53.480;-6.300;2023-08-12T08:01:37;99862.06;;;20.79;61.76
61537;BME280;48695;53.480;-6.300;2023-08-12T08:04:03;99868.78;;;20.83;61.55
61537;BME280;48695;53.480;-6.300;2023-08-12T08:06:31;99865.53;;;20.90;61.05
61537;BME280;48695;53.480;-6.300;2023-08-12T08:08:57;99872.03;;;20.97;60.86
61537;BME280;48695;53.480;-6.300;2023-08-12T08:11:24;99873.00;;;21.08;61.60
61537;BME280;48695;53.480;-6.300;2023-08-12T08:13:49;99877.25;;;21.10;60.67
61537;BME280;48695;53.480;-6.300;2023-08-12T08:16:15;99874.22;;;21.15;59.91
61537;BME280;48695;53.480;-6.300;2023-08-12T08:18:40;99859.97;;;21.16;60.00
61537;BME280;48695;53.480;-6.300;2023-08-12T08:21:05;99889.66;;;21.21;59.68
61537;BME280;48695;53.480;-6.300;2023-08-12T08:23:31;99874.34;;;21.24;59.64
61537;BME280;48695;53.480;-6.300;2023-08-12T08:25:56;99871.22;;;21.31;59.07
61537;BME280;48695;53.480;-6.300;2023-08-12T08:28:22;99872.06;;;21.31;58.41
61537;BME280;48695;53.480;-6.300;2023-08-12T08:30:47;99878.06;;;21.33;58.49
61537;BME280;48695;53.480;-6.300;2023-08-12T08:33:12;99876.38;;;21.32;58.66
61537;BME280;48695;53.480;-6.300;2023-08-12T08:35:38;99872.06;;;21.31;58.79
61537;BME280;48695;53.480;-6.300;2023-08-12T08:38:03;99864.28;;;21.28;59.05
61537;BME280;48695;53.480;-6.300;2023-08-12T08:40:29;99874.81;;;21.30;59.05
61537;BME280;48695;53.480;-6.300;2023-08-12T08:42:59;99879.78;;;21.34;58.89
61537;BME280;48695;53.480;-6.300;2023-08-12T08:45:28;99886.50;;;21.38;58.62
61537;BME280;48695;53.480;-6.300;2023-08-12T08:47:55;99875.31;;;21.35;58.72
61537;BME280;48695;53.480;-6.300;2023-08-12T08:50:21;99869.72;;;21.38;58.47
61537;BME280;48695;53.480;-6.300;2023-08-12T08:52:47;99866.75;;;21.31;58.36
61537;BME280;48695;53.480;-6.300;2023-08-12T08:55:14;99888.09;;;21.41;57.66
61537;BME280;48695;53.480;-6.300;2023-08-12T08:57:41;99886.28;;;21.41;57.64
61537;BME280;48695;53.480;-6.300;2023-08-12T09:00:08;99891.81;;;21.38;57.53
61537;BME280;48695;53.480;-6.300;2023-08-12T09:02:35;99879.50;;;21.37;57.52
61537;BME280;48695;53.480;-6.300;2023-08-12T09:05:01;99891.59;;;21.41;58.16
61537;BME280;48695;53.480;-6.300;2023-08-12T09:07:28;99860.94;;;21.37;58.60
61537;BME280;48695;53.480;-6.300;2023-08-12T09:09:54;99885.72;;;21.70;58.42
61537;BME280;48695;53.480;-6.300;2023-08-12T09:12:21;99883.25;;;21.78;57.23
61537;BME280;48695;53.480;-6.300;2023-08-12T09:14:47;99887.31;;;21.93;56.52
61537;BME280;48695;53.480;-6.300;2023-08-12T09:17:14;99881.75;;;21.96;55.74
61537;BME280;48695;53.480;-6.300;2023-08-12T09:19:40;99893.03;;;22.10;56.16
61537;BME280;48695;53.480;-6.300;2023-08-12T09:22:07;99895.25;;;22.16;55.73
61537;BME280;48695;53.480;-6.300;2023-08-12T09:24:34;99892.31;;;22.19;55.71
61537;BME280;48695;53.480;-6.300;2023-08-12T09:26:59;99896.63;;;22.20;55.22
61537;BME280;48695;53.480;-6.300;2023-08-12T09:29:33;99925.41;;;22.26;55.51
61537;BME280;48695;53.480;-6.300;2023-08-12T09:32:22;99896.84;;;22.28;55.35
61537;BME280;48695;53.480;-6.300;2023-08-12T09:34:54;99905.81;;;22.27;54.81
61537;BME280;48695;53.480;-6.300;2023-08-12T09:37:23;99902.69;;;22.22;54.43
61537;BME280;48695;53.480;-6.300;2023-08-12T09:39:50;99906.34;;;22.21;54.37
61537;BME280;48695;53.480;-6.300;2023-08-12T09:42:17;99912.59;;;22.20;54.09
61537;BME280;48695;53.480;-6.300;2023-08-12T09:44:43;99901.25;;;22.18;54.82
61537;BME280;48695;53.480;-6.300;2023-08-12T09:47:09;99911.91;;;22.18;55.24
61537;BME280;48695;53.480;-6.300;2023-08-12T09:49:35;99877.19;;;22.19;55.25
61537;BME280;48695;53.480;-6.300;2023-08-12T09:52:01;99904.75;;;22.39;55.55
61537;BME280;48695;53.480;-6.300;2023-08-12T09:54:34;99918.13;;;22.70;55.58
61537;BME280;48695;53.480;-6.300;2023-08-12T09:57:01;99924.16;;;22.93;54.12
61537;BME280;48695;53.480;-6.300;2023-08-12T09:59:31;99904.88;;;23.10;54.04
61537;BME280;48695;53.480;-6.300;2023-08-12T10:01:58;99917.00;;;23.24;52.55
61537;BME280;48695;53.480;-6.300;2023-08-12T10:04:27;99926.41;;;23.28;52.25
61537;BME280;48695;53.480;-6.300;2023-08-12T10:06:55;99929.34;;;23.25;52.25
61537;BME280;48695;53.480;-6.300;2023-08-12T10:09:20;99929.63;;;23.22;53.70
61537;BME280;48695;53.480;-6.300;2023-08-12T10:11:47;99933.78;;;23.15;52.80
61537;BME280;48695;53.480;-6.300;2023-08-12T10:14:13;99921.09;;;22.97;53.06
61537;BME280;48695;53.480;-6.300;2023-08-12T10:16:42;99931.47;;;23.00;53.28
61537;BME280;48695;53.480;-6.300;2023-08-12T10:19:11;99932.75;;;22.96;53.72
61537;BME280;48695;53.480;-6.300;2023-08-12T10:21:37;99902.28;;;22.89;52.36
61537;BME280;48695;53.480;-6.300;2023-08-12T10:24:03;99908.50;;;22.99;52.93
61537;BME280;48695;53.480;-6.300;2023-08-12T10:26:30;99917.56;;;23.18;52.96
61537;BME280;48695;53.480;-6.300;2023-08-12T10:28:59;99923.34;;;23.33;52.78
61537;BME280;48695;53.480;-6.300;2023-08-12T10:31:26;99916.22;;;23.43;52.49
61537;BME280;48695;53.480;-6.300;2023-08-12T10:33:53;99933.38;;;23.60;52.53
61537;BME280;48695;53.480;-6.300;2023-08-12T10:36:18;99925.56;;;23.68;51.68
61537;BME280;48695;53.480;-6.300;2023-08-12T10:38:46;99938.06;;;23.77;50.56
61537;BME280;48695;53.480;-6.300;2023-08-12T10:41:19;99930.47;;;23.82;51.55
61537;BME280;48695;53.480;-6.300;2023-08-12T10:46:24;99917.44;;;23.79;51.20
61537;BME280;48695;53.480;-6.300;2023-08-12T10:49:11;99937.81;;;23.90;51.40
61537;BME280;48695;53.480;-6.300;2023-08-12T10:51:44;99927.28;;;23.88;50.14
61537;BME280;48695;53.480;-6.300;2023-08-12T10:54:30;99928.25;;;23.97;51.20
61537;BME280;48695;53.480;-6.300;2023-08-12T11:04:44;99946.59;;;23.71;49.58
61537;BME280;48695;53.480;-6.300;2023-08-12T11:07:18;99951.41;;;23.67;49.82
61537;BME280;48695;53.480;-6.300;2023-08-12T11:09:44;99958.34;;;23.59;49.85
61537;BME280;48695;53.480;-6.300;2023-08-12T11:12:10;99951.34;;;23.58;50.50
61537;BME280;48695;53.480;-6.300;2023-08-12T11:14:49;99950.81;;;23.64;51.43
61537;BME280;48695;53.480;-6.300;2023-08-12T11:17:18;99953.63;;;23.72;50.89
61537;BME280;48695;53.480;-6.300;2023-08-12T11:19:43;99953.53;;;23.83;49.95
61537;BME280;48695;53.480;-6.300;2023-08-12T11:22:09;99951.56;;;23.95;49.46
61537;BME280;48695;53.480;-6.300;2023-08-12T11:24:41;99955.50;;;24.00;49.22
61537;BME280;48695;53.480;-6.300;2023-08-12T11:27:10;99956.75;;;24.06;49.83
61537;BME280;48695;53.480;-6.300;2023-08-12T11:29:38;99953.53;;;24.02;49.24
61537;BME280;48695;53.480;-6.300;2023-08-12T11:32:05;99946.66;;;23.90;48.62
61537;BME280;48695;53.480;-6.300;2023-08-12T11:34:31;99971.06;;;23.95;48.85
61537;BME280;48695;53.480;-6.300;2023-08-12T11:36:58;99972.19;;;23.83;49.02
61537;BME280;48695;53.480;-6.300;2023-08-12T11:39:23;99953.34;;;23.75;49.29
61537;BME280;48695;53.480;-6.300;2023-08-12T11:41:48;99944.53;;;23.74;49.41
61537;BME280;48695;53.480;-6.300;2023-08-12T11:44:16;99962.78;;;23.79;49.33
61537;BME280;48695;53.480;-6.300;2023-08-12T11:46:42;99953.53;;;23.83;49.40
61537;BME280;48695;53.480;-6.300;2023-08-12T11:49:07;99952.66;;;23.92;49.46
61537;BME280;48695;53.480;-6.300;2023-08-12T11:51:34;99952.84;;;24.00;49.15
61537;BME280;48695;53.480;-6.300;2023-08-12T11:54:00;99939.91;;;24.15;49.53
61537;BME280;48695;53.480;-6.300;2023-08-12T11:56:26;99942.16;;;24.29;48.82
61537;BME280;48695;53.480;-6.300;2023-08-12T11:58:52;99936.03;;;24.39;48.41
61537;BME280;48695;53.480;-6.300;2023-08-12T12:01:20;99953.13;;;24.55;47.81
61537;BME280;48695;53.480;-6.300;2023-08-12T12:03:53;99955.06;;;24.63;47.73
61537;BME280;48695;53.480;-6.300;2023-08-12T12:06:28;99950.28;;;24.67;48.01
61537;BME280;48695;53.480;-6.300;2023-08-12T12:08:54;99947.50;;;24.58;47.18
61537;BME280;48695;53.480;-6.300;2023-08-12T12:11:20;99943.03;;;24.49;47.66
61537;BME280;48695;53.480;-6.300;2023-08-12T12:13:46;99949.34;;;24.48;47.27
61537;BME280;48695;53.480;-6.300;2023-08-12T12:16:12;99954.41;;;24.42;48.05
61537;BME280;48695;53.480;-6.300;2023-08-12T12:18:38;99951.59;;;24.33;47.52
61537;BME280;48695;53.480;-6.300;2023-08-12T12:21:03;99958.19;;;24.29;48.05
61537;BME280;48695;53.480;-6.300;2023-08-12T12:23:30;99964.09;;;24.23;48.33
61537;BME280;48695;53.480;-6.300;2023-08-12T12:26:02;99966.03;;;24.21;48.33
61537;BME280;48695;53.480;-6.300;2023-08-12T12:28:28;99958.88;;;24.12;48.00
61537;BME280;48695;53.480;-6.300;2023-08-12T12:30:54;99977.00;;;24.08;48.31
61537;BME280;48695;53.480;-6.300;2023-08-12T12:33:20;99960.00;;;24.00;48.64
61537;BME280;48695;53.480;-6.300;2023-08-12T12:35:45;99964.91;;;23.95;48.55
61537;BME280;48695;53.480;-6.300;2023-08-12T12:38:11;99973.31;;;23.90;48.60
61537;BME280;48695;53.480;-6.300;2023-08-12T12:40:36;99972.72;;;23.87;48.70
61537;BME280;48695;53.480;-6.300;2023-08-12T12:43:03;99966.13;;;23.81;49.20
61537;BME280;48695;53.480;-6.300;2023-08-12T12:45:29;99962.63;;;23.80;49.01
61537;BME280;48695;53.480;-6.300;2023-08-12T12:47:54;99965.16;;;23.82;49.58
61537;BME280;48695;53.480;-6.300;2023-08-12T12:50:20;99961.41;;;23.94;49.71
61537;BME280;48695;53.480;-6.300;2023-08-12T12:52:45;99957.19;;;24.11;49.26
61537;BME280;48695;53.480;-6.300;2023-08-12T12:55:10;99952.16;;;24.37;48.45